createdAt,value
2019-01-14T00:00:14.735Z,984.20
2019-01-14T00:01:14.725Z,984.23
2019-01-14T00:02:14.722Z,984.26
2019-01-14T00:03:14.703Z,984.33
2019-01-14T00:04:14.689Z,984.36
2019-01-14T00:05:14.681Z,984.42
2019-01-14T00:06:14.674Z,984.37
2019-01-14T00:07:14.677Z,984.42
2019-01-14T00:08:14.648Z,984.50
2019-01-14T00:09:14.636Z,984.46
2019-01-14T00:10:14.627Z,984.53
2019-01-14T00:11:14.615Z,984.61
2019-01-14T00:12:14.641Z,984.61
2019-01-14T00:13:14.593Z,984.72
2019-01-14T00:14:14.595Z,984.77
2019-01-14T00:15:14.576Z,984.72
2019-01-14T00:16:14.567Z,984.81
2019-01-14T00:17:14.558Z,984.76
2019-01-14T00:18:14.560Z,984.79
2019-01-14T00:19:14.531Z,984.83
2019-01-14T00:20:14.525Z,984.87
2019-01-14T00:21:14.509Z,984.96
2019-01-14T00:22:14.503Z,984.93
2019-01-14T00:23:14.502Z,984.90
2019-01-14T00:24:14.510Z,985.00
2019-01-14T00:25:14.467Z,984.89
2019-01-14T00:26:14.455Z,985.03
2019-01-14T00:27:14.447Z,985.03
2019-01-14T00:28:14.446Z,985.03
2019-01-14T00:29:14.429Z,985.15
2019-01-14T00:30:14.412Z,985.13
2019-01-14T00:31:14.403Z,985.10
2019-01-14T00:32:14.390Z,985.26
2019-01-14T00:33:14.391Z,985.24
2019-01-14T00:34:14.370Z,985.15
2019-01-14T00:35:14.372Z,985.08
2019-01-14T00:36:17.693Z,985.23
2019-01-14T00:37:14.342Z,985.16
2019-01-14T00:38:14.341Z,985.15
2019-01-14T00:39:14.316Z,985.16
2019-01-14T00:40:14.305Z,985.35
2019-01-14T00:41:14.297Z,985.15
2019-01-14T00:42:14.284Z,985.23
2019-01-14T00:43:14.317Z,985.26
2019-01-14T00:44:14.267Z,985.28
2019-01-14T00:45:14.255Z,985.35
2019-01-14T00:46:14.248Z,985.38
2019-01-14T00:47:14.234Z,985.42
2019-01-14T00:48:14.223Z,985.37
2019-01-14T00:49:14.227Z,985.48
2019-01-14T00:50:14.210Z,985.50
2019-01-14T00:51:14.193Z,985.59
2019-01-14T00:52:14.188Z,985.42
2019-01-14T00:53:14.180Z,985.51
2019-01-14T00:54:14.189Z,985.53
2019-01-14T00:55:14.153Z,985.61
2019-01-14T00:56:14.139Z,985.58
2019-01-14T00:57:14.128Z,985.51
2019-01-14T00:58:14.120Z,985.59
2019-01-14T00:59:14.116Z,985.63
2019-01-14T01:00:14.094Z,985.73
2019-01-14T01:01:14.084Z,985.83
2019-01-14T01:02:14.075Z,985.85
2019-01-14T01:03:14.067Z,985.79
2019-01-14T01:04:14.063Z,985.75
2019-01-14T01:05:14.042Z,985.84
2019-01-14T01:06:14.061Z,985.86
2019-01-14T01:07:14.025Z,985.93
2019-01-14T01:08:14.014Z,985.99
2019-01-14T01:09:14.016Z,986.06
2019-01-14T01:10:14.003Z,985.98
2019-01-14T01:11:13.980Z,986.12
2019-01-14T01:12:14.035Z,986.20
2019-01-14T01:13:14.050Z,986.07
2019-01-14T01:14:13.989Z,986.13
2019-01-14T01:15:13.956Z,986.20
2019-01-14T01:16:13.931Z,986.18
2019-01-14T01:17:13.922Z,986.15
2019-01-14T01:18:13.919Z,986.18
2019-01-14T01:19:13.933Z,986.19
2019-01-14T01:20:13.912Z,986.18
2019-01-14T01:21:13.875Z,986.10
2019-01-14T01:22:13.867Z,986.08
2019-01-14T01:23:13.853Z,986.18
2019-01-14T01:24:13.857Z,986.23
2019-01-14T01:25:23.148Z,986.25
2019-01-14T01:26:13.814Z,986.37
2019-01-14T01:27:13.803Z,986.31
2019-01-14T01:28:13.792Z,986.35
2019-01-14T01:29:13.783Z,986.24
2019-01-14T01:30:13.799Z,986.39
2019-01-14T01:31:13.761Z,986.47
2019-01-14T01:32:13.750Z,986.45
2019-01-14T01:33:13.737Z,986.38
2019-01-14T01:34:13.728Z,986.41
2019-01-14T01:35:13.729Z,986.55
2019-01-14T01:36:13.707Z,986.53
2019-01-14T01:37:15.276Z,986.50
2019-01-14T01:38:13.687Z,986.73
2019-01-14T01:39:13.675Z,986.43
2019-01-14T01:40:13.675Z,986.58
2019-01-14T01:41:13.653Z,986.55
2019-01-14T01:42:13.643Z,986.55
2019-01-14T01:43:13.632Z,986.69
2019-01-14T01:44:13.621Z,986.64
2019-01-14T01:45:13.625Z,986.71
2019-01-14T01:46:13.599Z,986.90
2019-01-14T01:47:13.592Z,986.83
2019-01-14T01:48:13.580Z,986.91
2019-01-14T01:49:13.569Z,986.85
2019-01-14T01:50:13.570Z,987.02
2019-01-14T01:51:13.548Z,986.99
2019-01-14T01:52:13.538Z,987.13
2019-01-14T01:53:13.532Z,987.08
2019-01-14T01:54:13.517Z,987.07
2019-01-14T01:55:13.519Z,987.10
2019-01-14T01:56:13.496Z,987.09
2019-01-14T01:57:14.989Z,987.19
2019-01-14T01:58:13.474Z,987.17
2019-01-14T01:59:13.464Z,987.17
2019-01-14T02:00:13.469Z,987.30
2019-01-14T02:01:13.439Z,987.28
2019-01-14T02:02:13.439Z,987.33
2019-01-14T02:03:13.419Z,987.28
2019-01-14T02:04:13.409Z,987.22
2019-01-14T02:05:13.416Z,987.31
2019-01-14T02:06:13.387Z,987.31
2019-01-14T02:07:13.376Z,987.29
2019-01-14T02:08:13.365Z,987.36
2019-01-14T02:09:13.357Z,987.39
2019-01-14T02:10:13.355Z,987.49
2019-01-14T02:11:13.333Z,987.46
2019-01-14T02:12:13.324Z,987.49
2019-01-14T02:13:13.312Z,987.44
2019-01-14T02:14:13.303Z,987.44
2019-01-14T02:15:13.302Z,987.50
2019-01-14T02:16:13.281Z,987.72
2019-01-14T02:17:13.269Z,987.64
2019-01-14T02:18:13.263Z,987.69
2019-01-14T02:19:13.251Z,987.70
2019-01-14T02:20:13.249Z,987.78
2019-01-14T02:21:13.228Z,987.64
2019-01-14T02:22:13.216Z,987.67
2019-01-14T02:23:13.206Z,987.68
2019-01-14T02:24:13.195Z,987.74
2019-01-14T02:25:13.199Z,987.78
2019-01-14T02:26:13.176Z,987.85
2019-01-14T02:27:13.164Z,987.78
2019-01-14T02:28:13.153Z,987.84
2019-01-14T02:29:13.143Z,987.94
2019-01-14T02:30:13.147Z,987.95
2019-01-14T02:31:13.120Z,987.89
2019-01-14T02:32:13.110Z,987.88
2019-01-14T02:33:13.100Z,987.91
2019-01-14T02:34:13.089Z,987.87
2019-01-14T02:35:13.090Z,987.90
2019-01-14T02:36:13.065Z,987.94
2019-01-14T02:37:13.065Z,987.95
2019-01-14T02:38:13.047Z,988.02
2019-01-14T02:39:13.032Z,988.04
2019-01-14T02:40:13.045Z,988.11
2019-01-14T02:41:13.012Z,988.04
2019-01-14T02:42:13.000Z,988.08
2019-01-14T02:43:12.992Z,988.12
2019-01-14T02:44:12.984Z,988.19
2019-01-14T02:45:12.970Z,988.20
2019-01-14T02:46:12.973Z,988.29
2019-01-14T02:47:12.954Z,988.31
2019-01-14T02:48:12.936Z,988.37
2019-01-14T02:49:12.927Z,988.40
2019-01-14T02:50:12.921Z,988.37
2019-01-14T02:51:12.928Z,988.36
2019-01-14T02:52:12.898Z,988.32
2019-01-14T02:53:12.885Z,988.42
2019-01-14T02:54:12.877Z,988.46
2019-01-14T02:55:12.961Z,988.42
2019-01-14T02:56:12.860Z,988.53
2019-01-14T02:57:12.845Z,988.56
2019-01-14T02:58:12.828Z,988.62
2019-01-14T02:59:12.819Z,988.60
2019-01-14T03:00:12.807Z,988.62
2019-01-14T03:01:12.809Z,988.70
2019-01-14T03:02:12.789Z,988.71
2019-01-14T03:03:12.778Z,988.77
2019-01-14T03:04:12.763Z,988.82
2019-01-14T03:05:12.753Z,988.87
2019-01-14T03:06:12.754Z,988.89
2019-01-14T03:07:12.734Z,988.93
2019-01-14T03:08:12.723Z,988.86
2019-01-14T03:09:12.712Z,989.09
2019-01-14T03:10:12.698Z,988.96
2019-01-14T03:11:12.698Z,989.04
2019-01-14T03:12:12.678Z,989.09
2019-01-14T03:13:12.669Z,989.06
2019-01-14T03:14:12.659Z,989.10
2019-01-14T03:15:12.645Z,989.21
2019-01-14T03:16:12.642Z,989.16
2019-01-14T03:17:12.623Z,989.27
2019-01-14T03:18:12.614Z,989.23
2019-01-14T03:19:12.608Z,989.32
2019-01-14T03:20:12.590Z,989.38
2019-01-14T03:21:12.592Z,989.37
2019-01-14T03:22:12.570Z,989.38
2019-01-14T03:23:12.559Z,989.41
2019-01-14T03:24:12.547Z,989.39
2019-01-14T03:25:12.540Z,989.43
2019-01-14T03:26:12.535Z,989.53
2019-01-14T03:27:12.515Z,989.53
2019-01-14T03:28:12.503Z,989.51
2019-01-14T03:29:12.493Z,989.52
2019-01-14T03:30:12.488Z,989.40
2019-01-14T03:31:12.485Z,989.61
2019-01-14T03:32:12.462Z,989.59
2019-01-14T03:33:12.453Z,989.57
2019-01-14T03:34:12.443Z,989.57
2019-01-14T03:35:12.428Z,989.63
2019-01-14T03:36:12.436Z,989.59
2019-01-14T03:37:12.406Z,989.64
2019-01-14T03:38:12.395Z,989.75
2019-01-14T03:39:12.382Z,989.76
2019-01-14T03:40:12.381Z,989.82
2019-01-14T03:41:12.376Z,989.80
2019-01-14T03:42:12.352Z,989.94
2019-01-14T03:43:12.342Z,989.88
2019-01-14T03:44:12.328Z,989.92
2019-01-14T03:45:12.338Z,989.87
2019-01-14T03:46:12.369Z,989.94
2019-01-14T03:47:12.295Z,989.89
2019-01-14T03:48:12.288Z,989.86
2019-01-14T03:49:12.275Z,989.80
2019-01-14T03:50:12.264Z,989.93
2019-01-14T03:51:12.282Z,990.01
2019-01-14T03:52:12.248Z,990.03
2019-01-14T03:53:12.234Z,989.95
2019-01-14T03:54:12.222Z,989.98
2019-01-14T03:55:12.210Z,989.97
2019-01-14T03:56:12.212Z,990.01
2019-01-14T03:57:12.189Z,990.00
2019-01-14T03:58:12.177Z,989.99
2019-01-14T03:59:12.177Z,989.98
2019-01-14T04:00:12.161Z,990.02
2019-01-14T04:01:12.148Z,990.16
2019-01-14T04:02:12.146Z,990.09
2019-01-14T04:03:12.123Z,990.11
2019-01-14T04:04:12.115Z,990.09
2019-01-14T04:05:12.101Z,990.22
2019-01-14T04:06:12.096Z,990.15
2019-01-14T04:07:13.835Z,990.25
2019-01-14T04:08:12.103Z,990.22
2019-01-14T04:09:12.059Z,990.28
2019-01-14T04:10:12.056Z,990.29
2019-01-14T04:11:12.036Z,990.36
2019-01-14T04:12:12.042Z,990.37
2019-01-14T04:13:12.018Z,990.29
2019-01-14T04:14:12.005Z,990.39
2019-01-14T04:15:11.996Z,990.39
2019-01-14T04:16:11.981Z,990.43
2019-01-14T04:17:11.983Z,990.40
2019-01-14T04:18:11.962Z,990.46
2019-01-14T04:19:11.950Z,990.47
2019-01-14T04:20:11.939Z,990.50
2019-01-14T04:21:11.927Z,990.50
2019-01-14T04:22:11.936Z,990.50
2019-01-14T04:23:11.910Z,990.57
2019-01-14T04:24:11.899Z,990.56
2019-01-14T04:25:11.887Z,990.59
2019-01-14T04:26:11.874Z,990.58
2019-01-14T04:27:11.877Z,990.66
2019-01-14T04:28:11.853Z,990.64
2019-01-14T04:29:11.856Z,990.59
2019-01-14T04:30:11.831Z,990.64
2019-01-14T04:31:11.823Z,990.68
2019-01-14T04:32:11.821Z,990.65
2019-01-14T04:33:11.797Z,990.73
2019-01-14T04:34:11.788Z,990.71
2019-01-14T04:35:11.779Z,990.72
2019-01-14T04:36:11.765Z,990.70
2019-01-14T04:37:11.765Z,990.82
2019-01-14T04:38:11.753Z,990.71
2019-01-14T04:39:11.734Z,990.89
2019-01-14T04:40:11.729Z,990.95
2019-01-14T04:41:11.713Z,990.93
2019-01-14T04:42:11.719Z,990.99
2019-01-14T04:43:11.690Z,991.09
2019-01-14T04:44:11.683Z,991.21
2019-01-14T04:45:11.669Z,991.08
2019-01-14T04:46:11.666Z,991.25
2019-01-14T04:47:11.658Z,991.27
2019-01-14T04:48:11.635Z,991.21
2019-01-14T04:49:11.630Z,991.20
2019-01-14T04:50:11.617Z,991.19
2019-01-14T04:51:11.606Z,991.40
2019-01-14T04:52:11.604Z,991.20
2019-01-14T04:53:11.595Z,991.26
2019-01-14T04:54:11.575Z,991.33
2019-01-14T04:55:11.564Z,991.33
2019-01-14T04:56:11.555Z,991.25
2019-01-14T04:57:11.540Z,991.33
2019-01-14T04:58:11.542Z,991.44
2019-01-14T04:59:11.516Z,991.35
2019-01-14T05:00:11.554Z,991.38
2019-01-14T05:01:11.504Z,991.38
2019-01-14T05:02:11.566Z,991.46
2019-01-14T05:03:11.487Z,991.41
2019-01-14T05:04:11.465Z,991.33
2019-01-14T05:05:11.455Z,991.48
2019-01-14T05:06:11.444Z,991.49
2019-01-14T05:07:11.435Z,991.47
2019-01-14T05:08:11.439Z,991.51
2019-01-14T05:09:11.414Z,991.51
2019-01-14T05:10:11.496Z,991.56
2019-01-14T05:11:11.395Z,991.46
2019-01-14T05:12:11.380Z,991.54
2019-01-14T05:13:11.391Z,991.57
2019-01-14T05:14:11.360Z,991.53
2019-01-14T05:15:11.345Z,991.53
2019-01-14T05:16:11.339Z,991.51
2019-01-14T05:17:11.329Z,991.53
2019-01-14T05:18:11.325Z,991.60
2019-01-14T05:19:11.305Z,991.62
2019-01-14T05:20:11.298Z,991.67
2019-01-14T05:21:11.285Z,991.68
2019-01-14T05:22:11.274Z,991.60
2019-01-14T05:23:11.280Z,991.64
2019-01-14T05:24:11.252Z,991.63
2019-01-14T05:25:11.244Z,991.59
2019-01-14T05:26:11.232Z,991.56
2019-01-14T05:27:11.221Z,991.52
2019-01-14T05:28:11.224Z,991.59
2019-01-14T05:29:11.198Z,991.56
2019-01-14T05:30:11.189Z,991.56
2019-01-14T05:31:11.175Z,991.62
2019-01-14T05:32:11.165Z,991.64
2019-01-14T05:33:11.171Z,991.59
2019-01-14T05:34:11.150Z,991.51
2019-01-14T05:35:11.136Z,991.54
2019-01-14T05:36:11.126Z,991.64
2019-01-14T05:37:11.114Z,991.61
2019-01-14T05:38:11.121Z,991.57
2019-01-14T05:39:11.093Z,991.62
2019-01-14T05:40:11.086Z,991.56
2019-01-14T05:41:11.074Z,991.60
2019-01-14T05:42:11.065Z,991.59
2019-01-14T05:43:11.063Z,991.66
2019-01-14T05:44:11.039Z,991.63
2019-01-14T05:45:11.032Z,991.58
2019-01-14T05:46:11.018Z,991.64
2019-01-14T05:47:11.009Z,991.67
2019-01-14T05:48:11.012Z,991.73
2019-01-14T05:49:10.987Z,991.64
2019-01-14T05:50:10.976Z,991.71
2019-01-14T05:51:10.969Z,991.67
2019-01-14T05:52:10.953Z,991.71
2019-01-14T05:53:10.979Z,991.67
2019-01-14T05:54:10.937Z,991.71
2019-01-14T05:55:10.925Z,991.60
2019-01-14T05:56:10.912Z,991.70
2019-01-14T05:57:10.915Z,991.77
2019-01-14T05:58:10.906Z,991.72
2019-01-14T05:59:10.885Z,991.67
2019-01-14T06:00:10.871Z,991.73
2019-01-14T06:01:10.859Z,991.68
2019-01-14T06:02:10.851Z,991.70
2019-01-14T06:03:10.854Z,991.85
2019-01-14T06:04:10.833Z,991.72
2019-01-14T06:05:10.819Z,991.69
2019-01-14T06:06:10.806Z,991.79
2019-01-14T06:07:10.799Z,991.74
2019-01-14T06:08:10.826Z,991.83
2019-01-14T06:09:10.776Z,991.79
2019-01-14T06:10:10.765Z,991.81
2019-01-14T06:11:10.754Z,991.82
2019-01-14T06:12:10.745Z,991.78
2019-01-14T06:13:10.741Z,991.80
2019-01-14T06:14:10.734Z,991.77
2019-01-14T06:15:10.714Z,991.83
2019-01-14T06:16:10.706Z,991.79
2019-01-14T06:17:10.688Z,991.81
2019-01-14T06:18:10.678Z,991.82
2019-01-14T06:19:10.677Z,991.76
2019-01-14T06:20:10.656Z,991.81
2019-01-14T06:21:10.650Z,991.75
2019-01-14T06:22:10.642Z,991.93
2019-01-14T06:23:10.629Z,991.87
2019-01-14T06:24:10.627Z,991.94
2019-01-14T06:25:10.605Z,991.90
2019-01-14T06:26:10.593Z,992.03
2019-01-14T06:27:10.599Z,991.99
2019-01-14T06:28:10.574Z,991.97
2019-01-14T06:29:10.574Z,992.01
2019-01-14T06:30:10.550Z,992.12
2019-01-14T06:31:10.542Z,992.16
2019-01-14T06:32:10.532Z,992.17
2019-01-14T06:33:10.522Z,992.18
2019-01-14T06:34:10.522Z,992.22
2019-01-14T06:35:10.498Z,992.25
2019-01-14T06:36:10.553Z,992.26
2019-01-14T06:37:10.479Z,992.21
2019-01-14T06:38:10.467Z,992.27
2019-01-14T06:39:10.466Z,992.33
2019-01-14T06:40:10.452Z,992.33
2019-01-14T06:41:10.433Z,992.18
2019-01-14T06:42:10.426Z,992.27
2019-01-14T06:43:10.413Z,992.29
2019-01-14T06:44:10.412Z,992.40
2019-01-14T06:45:10.392Z,992.31
2019-01-14T06:46:10.380Z,992.51
2019-01-14T06:47:10.370Z,992.50
2019-01-14T06:48:10.367Z,992.65
2019-01-14T06:49:10.368Z,992.52
2019-01-14T06:50:10.339Z,992.70
2019-01-14T06:51:10.330Z,992.87
2019-01-14T06:52:10.317Z,992.93
2019-01-14T06:53:10.307Z,993.02
2019-01-14T06:54:10.307Z,993.05
2019-01-14T06:55:10.286Z,993.11
2019-01-14T06:56:10.275Z,993.13
2019-01-14T06:57:10.263Z,993.03
2019-01-14T06:58:10.253Z,993.06
2019-01-14T06:59:10.252Z,993.02
2019-01-14T07:00:10.232Z,993.10
2019-01-14T07:01:10.222Z,993.11
2019-01-14T07:02:10.211Z,993.17
2019-01-14T07:03:10.198Z,993.17
2019-01-14T07:04:10.200Z,993.17
2019-01-14T07:05:10.180Z,993.17
2019-01-14T07:06:10.167Z,993.13
2019-01-14T07:07:10.157Z,993.16
2019-01-14T07:08:10.149Z,993.21
2019-01-14T07:09:10.150Z,993.24
2019-01-14T07:10:10.126Z,993.37
2019-01-14T07:11:10.114Z,993.39
2019-01-14T07:12:10.109Z,993.43
2019-01-14T07:13:10.105Z,993.52
2019-01-14T07:14:10.094Z,993.53
2019-01-14T07:15:10.070Z,993.51
2019-01-14T07:16:10.060Z,993.61
2019-01-14T07:17:10.050Z,993.59
2019-01-14T07:18:10.054Z,993.64
2019-01-14T07:19:10.041Z,993.67
2019-01-14T07:20:10.017Z,993.69
2019-01-14T07:21:10.021Z,993.71
2019-01-14T07:22:09.999Z,993.68
2019-01-14T07:23:09.986Z,993.71
2019-01-14T07:24:09.991Z,993.75
2019-01-14T07:25:09.971Z,993.76
2019-01-14T07:26:09.954Z,993.72
2019-01-14T07:27:09.943Z,993.75
2019-01-14T07:28:09.933Z,993.77
2019-01-14T07:29:09.958Z,993.77
2019-01-14T07:30:09.913Z,993.86
2019-01-14T07:31:09.900Z,993.82
2019-01-14T07:32:09.891Z,993.81
2019-01-14T07:33:09.879Z,993.73
2019-01-14T07:34:09.868Z,993.78
2019-01-14T07:35:09.873Z,993.80
2019-01-14T07:36:09.878Z,993.89
2019-01-14T07:37:09.836Z,993.72
2019-01-14T07:38:09.828Z,993.82
2019-01-14T07:39:09.817Z,993.78
2019-01-14T07:40:09.815Z,993.86
2019-01-14T07:41:09.793Z,993.84
2019-01-14T07:42:09.958Z,993.85
2019-01-14T07:43:09.773Z,993.97
2019-01-14T07:44:09.760Z,993.93
2019-01-14T07:45:09.762Z,993.95
2019-01-14T07:46:09.742Z,993.95
2019-01-14T07:47:09.732Z,994.03
2019-01-14T07:48:09.724Z,994.03
2019-01-14T07:49:09.714Z,993.92
2019-01-14T07:50:09.708Z,994.01
2019-01-14T07:51:09.688Z,993.96
2019-01-14T07:52:09.677Z,994.06
2019-01-14T07:53:09.671Z,994.06
2019-01-14T07:54:09.663Z,994.15
2019-01-14T07:55:09.655Z,994.19
2019-01-14T07:56:09.664Z,994.08
2019-01-14T07:57:09.620Z,994.21
2019-01-14T07:58:09.612Z,994.26
2019-01-14T07:59:09.627Z,994.23
2019-01-14T08:00:09.626Z,994.26
2019-01-14T08:01:09.592Z,994.31
2019-01-14T08:02:09.587Z,994.29
2019-01-14T08:03:09.561Z,994.31
2019-01-14T08:04:09.545Z,994.24
2019-01-14T08:05:09.560Z,994.41
2019-01-14T08:06:09.526Z,994.28
2019-01-14T08:07:09.520Z,994.30
2019-01-14T08:08:14.001Z,994.33
2019-01-14T08:09:09.527Z,994.39
2019-01-14T08:10:09.495Z,994.43
2019-01-14T08:11:09.471Z,994.40
2019-01-14T08:12:09.464Z,994.49
2019-01-14T08:13:09.449Z,994.41
2019-01-14T08:14:09.442Z,994.50
2019-01-14T08:15:09.453Z,994.66
2019-01-14T08:16:09.419Z,994.53
2019-01-14T08:17:09.423Z,994.54
2019-01-14T08:18:09.406Z,994.56
2019-01-14T08:19:09.387Z,994.58
2019-01-14T08:20:09.408Z,994.59
2019-01-14T08:21:09.367Z,994.58
2019-01-14T08:22:09.356Z,994.57
2019-01-14T08:23:09.347Z,994.62
2019-01-14T08:24:09.334Z,994.65
2019-01-14T08:25:09.334Z,994.66
2019-01-14T08:26:09.318Z,994.73
2019-01-14T08:27:09.305Z,994.77
2019-01-14T08:28:09.294Z,994.67
2019-01-14T08:29:09.352Z,994.70
2019-01-14T08:30:09.284Z,994.72
2019-01-14T08:31:09.262Z,994.68
2019-01-14T08:32:09.251Z,994.76
2019-01-14T08:33:09.241Z,994.75
2019-01-14T08:34:09.227Z,994.69
2019-01-14T08:35:09.235Z,994.78
2019-01-14T08:36:09.208Z,994.80
2019-01-14T08:37:09.199Z,994.90
2019-01-14T08:38:09.184Z,994.80
2019-01-14T08:39:09.181Z,994.83
2019-01-14T08:40:09.176Z,994.82
2019-01-14T08:41:09.217Z,994.92
2019-01-14T08:42:09.142Z,994.81
2019-01-14T08:43:09.136Z,994.87
2019-01-14T08:44:09.120Z,994.77
2019-01-14T08:45:09.151Z,994.82
2019-01-14T08:46:09.102Z,994.94
2019-01-14T08:47:09.090Z,994.83
2019-01-14T08:48:09.079Z,994.91
2019-01-14T08:49:09.064Z,994.85
2019-01-14T08:50:09.056Z,994.88
2019-01-14T08:51:09.054Z,994.88
2019-01-14T08:52:09.036Z,994.92
2019-01-14T08:53:09.025Z,995.07
2019-01-14T08:54:09.049Z,995.00
2019-01-14T08:55:09.000Z,994.95
2019-01-14T08:56:09.002Z,995.05
2019-01-14T08:57:08.990Z,995.14
2019-01-14T08:58:08.974Z,995.00
2019-01-14T08:59:08.963Z,995.21
2019-01-14T09:00:09.016Z,995.14
2019-01-14T09:01:09.038Z,995.25
2019-01-14T09:02:08.941Z,995.12
2019-01-14T09:03:08.923Z,995.30
2019-01-14T09:04:08.907Z,995.18
2019-01-14T09:05:08.895Z,995.19
2019-01-14T09:06:08.915Z,995.31
2019-01-14T09:07:08.875Z,995.22
2019-01-14T09:08:08.869Z,995.29
2019-01-14T09:09:08.851Z,995.22
2019-01-14T09:10:09.532Z,995.36
2019-01-14T09:11:08.847Z,995.21
2019-01-14T09:12:08.868Z,995.34
2019-01-14T09:13:08.849Z,995.37
2019-01-14T09:14:08.838Z,995.44
2019-01-14T09:15:08.790Z,995.45
2019-01-14T09:16:08.852Z,995.55
2019-01-14T09:17:08.770Z,995.43
2019-01-14T09:18:08.754Z,995.47
2019-01-14T09:19:08.752Z,995.44
2019-01-14T09:20:08.735Z,995.41
2019-01-14T09:21:08.741Z,995.51
2019-01-14T09:22:08.714Z,995.47
2019-01-14T09:23:08.701Z,995.52
2019-01-14T09:24:08.691Z,995.53
2019-01-14T09:25:08.681Z,995.55
2019-01-14T09:26:08.683Z,995.50
2019-01-14T09:27:08.686Z,995.48
2019-01-14T09:28:08.650Z,995.66
2019-01-14T09:29:08.640Z,995.65
2019-01-14T09:30:08.632Z,995.60
2019-01-14T09:31:08.634Z,995.71
2019-01-14T09:32:08.604Z,995.65
2019-01-14T09:33:08.594Z,995.68
2019-01-14T09:34:08.583Z,995.73
2019-01-14T09:35:08.589Z,995.76
2019-01-14T09:36:08.573Z,995.70
2019-01-14T09:37:08.554Z,995.80
2019-01-14T09:38:08.805Z,995.76
2019-01-14T09:39:09.214Z,995.77
2019-01-14T09:40:09.211Z,995.74
2019-01-14T09:41:10.202Z,995.57
2019-01-14T09:42:09.212Z,995.81
2019-01-14T09:43:10.203Z,995.64
2019-01-14T09:44:08.483Z,995.59
2019-01-14T09:45:08.466Z,995.66
2019-01-14T09:46:08.737Z,995.60
2019-01-14T09:47:08.444Z,995.59
2019-01-14T09:48:08.435Z,995.69
2019-01-14T09:49:08.424Z,995.64
2019-01-14T09:50:08.415Z,995.67
2019-01-14T09:51:08.411Z,995.63
2019-01-14T09:52:08.392Z,995.60
2019-01-14T09:53:08.387Z,995.76
2019-01-14T09:54:08.366Z,995.68
2019-01-14T09:55:08.355Z,995.62
2019-01-14T09:56:08.356Z,995.64
2019-01-14T09:57:08.336Z,995.72
2019-01-14T09:58:08.325Z,995.65
2019-01-14T09:59:08.313Z,995.64
2019-01-14T10:00:15.221Z,995.67
2019-01-14T10:01:08.322Z,995.54
2019-01-14T10:02:08.283Z,995.65
2019-01-14T10:03:08.271Z,995.60
2019-01-14T10:04:08.260Z,995.66
2019-01-14T10:05:08.250Z,995.70
2019-01-14T10:06:08.237Z,995.69
2019-01-14T10:07:08.241Z,995.66
2019-01-14T10:08:08.216Z,995.62
2019-01-14T10:09:08.206Z,995.66
2019-01-14T10:10:08.198Z,995.58
2019-01-14T10:11:08.185Z,995.66
2019-01-14T10:12:08.191Z,995.76
2019-01-14T10:13:08.162Z,995.75
2019-01-14T10:14:08.152Z,995.69
2019-01-14T10:15:08.142Z,995.68
2019-01-14T10:16:08.131Z,995.68
2019-01-14T10:17:08.132Z,995.71
2019-01-14T10:18:08.107Z,995.80
2019-01-14T10:19:08.104Z,995.72
2019-01-14T10:20:08.088Z,995.68
2019-01-14T10:21:08.076Z,995.82
2019-01-14T10:22:08.120Z,995.78
2019-01-14T10:23:08.058Z,995.69
2019-01-14T10:24:08.046Z,995.68
2019-01-14T10:25:08.033Z,995.75
2019-01-14T10:26:08.024Z,995.65
2019-01-14T10:27:08.036Z,995.68
2019-01-14T10:28:08.000Z,995.70
2019-01-14T10:29:07.992Z,995.71
2019-01-14T10:30:07.981Z,995.74
2019-01-14T10:31:07.969Z,995.66
2019-01-14T10:32:07.974Z,995.74
2019-01-14T10:33:08.070Z,995.53
2019-01-14T10:34:07.996Z,995.64
2019-01-14T10:35:07.926Z,995.71
2019-01-14T10:36:07.917Z,995.72
2019-01-14T10:37:07.914Z,995.66
2019-01-14T10:38:07.897Z,995.70
2019-01-14T10:39:07.882Z,995.64
2019-01-14T10:40:07.884Z,995.64
2019-01-14T10:41:07.881Z,995.59
2019-01-14T10:42:07.861Z,995.58
2019-01-14T10:43:07.839Z,995.65
2019-01-14T10:44:07.828Z,995.68
2019-01-14T10:45:07.818Z,995.65
2019-01-14T10:46:07.807Z,995.61
2019-01-14T10:47:07.810Z,995.71
2019-01-14T10:48:07.786Z,995.68
2019-01-14T10:49:07.774Z,995.68
2019-01-14T10:50:07.769Z,995.54
2019-01-14T10:51:07.753Z,995.60
2019-01-14T10:52:07.752Z,995.58
2019-01-14T10:53:07.730Z,995.57
2019-01-14T10:54:07.720Z,995.70
2019-01-14T10:55:12.297Z,995.61
2019-01-14T10:56:08.696Z,995.69
2019-01-14T10:57:07.805Z,995.63
2019-01-14T10:58:07.677Z,995.69
2019-01-14T10:59:07.665Z,995.66
2019-01-14T11:00:07.656Z,995.52
2019-01-14T11:01:07.647Z,995.68
2019-01-14T11:02:07.643Z,995.70
2019-01-14T11:03:07.625Z,995.73
2019-01-14T11:04:07.612Z,995.67
2019-01-14T11:05:07.600Z,995.73
2019-01-14T11:06:07.591Z,995.84
2019-01-14T11:07:07.594Z,995.76
2019-01-14T11:08:07.569Z,995.85
2019-01-14T11:09:07.561Z,995.77
2019-01-14T11:10:07.548Z,995.87
2019-01-14T11:11:07.535Z,995.84
2019-01-14T11:12:07.536Z,996.05
2019-01-14T11:13:07.564Z,996.01
2019-01-14T11:14:07.502Z,995.98
2019-01-14T11:15:07.493Z,995.97
2019-01-14T11:16:07.485Z,995.91
2019-01-14T11:17:07.499Z,996.00
2019-01-14T11:18:07.460Z,996.05
2019-01-14T11:19:07.456Z,996.12
2019-01-14T11:20:07.437Z,996.30
2019-01-14T11:21:07.432Z,996.26
2019-01-14T11:22:07.418Z,996.00
2019-01-14T11:23:07.423Z,996.05
2019-01-14T11:24:07.401Z,996.09
2019-01-14T11:25:07.389Z,996.13
2019-01-14T11:26:07.375Z,996.21
2019-01-14T11:27:07.362Z,996.14
2019-01-14T11:28:07.363Z,996.15
2019-01-14T11:29:07.343Z,996.22
2019-01-14T11:30:07.333Z,996.13
2019-01-14T11:31:07.325Z,996.17
2019-01-14T11:32:07.783Z,996.21
2019-01-14T11:33:07.312Z,996.24
2019-01-14T11:34:07.289Z,996.16
2019-01-14T11:35:07.277Z,996.13
2019-01-14T11:36:07.267Z,996.00
2019-01-14T11:37:07.257Z,996.36
2019-01-14T11:38:07.258Z,996.17
2019-01-14T11:39:07.233Z,996.30
2019-01-14T11:40:07.224Z,996.10
2019-01-14T11:41:07.215Z,996.17
2019-01-14T11:42:07.212Z,996.16
2019-01-14T11:43:07.204Z,996.18
2019-01-14T11:44:07.180Z,996.14
2019-01-14T11:45:07.175Z,996.18
2019-01-14T11:46:07.186Z,996.23
2019-01-14T11:47:07.155Z,996.22
2019-01-14T11:48:07.153Z,996.29
2019-01-14T11:49:07.125Z,996.24
2019-01-14T11:50:07.115Z,996.23
2019-01-14T11:51:07.105Z,996.24
2019-01-14T11:52:07.095Z,996.27
2019-01-14T11:53:07.097Z,996.23
2019-01-14T11:54:07.073Z,996.29
2019-01-14T11:55:07.059Z,996.31
2019-01-14T11:56:07.057Z,996.36
2019-01-14T11:57:07.880Z,996.41
2019-01-14T11:58:07.042Z,996.53
2019-01-14T11:59:07.027Z,996.47
2019-01-14T12:00:07.010Z,996.56
2019-01-14T12:01:06.996Z,996.50
2019-01-14T12:02:06.988Z,996.55
2019-01-14T12:03:08.543Z,996.47
2019-01-14T12:04:06.969Z,996.58
2019-01-14T12:05:06.956Z,996.48
2019-01-14T12:06:06.943Z,996.53
2019-01-14T12:07:06.932Z,996.45
2019-01-14T12:08:06.936Z,996.45
2019-01-14T12:09:12.220Z,996.50
2019-01-14T12:10:07.898Z,996.51
2019-01-14T12:11:06.888Z,996.50
2019-01-14T12:12:06.878Z,996.54
2019-01-14T12:13:06.877Z,996.48
2019-01-14T12:14:06.857Z,996.54
2019-01-14T12:15:06.847Z,996.53
2019-01-14T12:16:06.837Z,996.43
2019-01-14T12:17:06.825Z,996.52
2019-01-14T12:18:06.825Z,996.58
2019-01-14T12:19:06.802Z,996.57
2019-01-14T12:20:06.790Z,996.54
2019-01-14T12:21:06.786Z,996.48
2019-01-14T12:22:06.770Z,996.47
2019-01-14T12:23:06.785Z,996.45
2019-01-14T12:24:06.753Z,996.53
2019-01-14T12:25:06.738Z,996.48
2019-01-14T12:26:06.726Z,996.42
2019-01-14T12:27:06.723Z,996.43
2019-01-14T12:28:06.721Z,996.46